Time;durP1;ratioP1;P1;durP2;ratioP2;P2;SDS_P1;SDS_P2;PMS_P1;PMS_P2;Temp;Humidity;BMP_temperature;BMP_pressure;BME280_temperature;BME280_humidity;BME280_pressure;Samples;Min_cycle;Max_cycle;Signal;HPM_P1;HPM_P2
2023/06/17 00:01:58;;;;;;;11.10;10.20;;;;;;;;;;108124;268;38738;-42
2023/06/17 00:04:34;;;;;;;11.50;10.50;;;;;;;;;;108128;268;39447;-41
2023/06/17 00:07:08;;;;;;;11.20;10.20;;;;;;;;;;108139;276;43854;-40
2023/06/17 00:09:44;;;;;;;11.00;10.10;;;;;;;;;;108123;276;41935;-41
2023/06/17 00:12:18;;;;;;;11.60;10.70;;;;;;;;;;108082;272;38759;-43
2023/06/17 00:14:53;;;;;;;11.30;10.30;;;;;;;;;;108082;276;40752;-41
2023/06/17 00:17:26;;;;;;;11.10;10.20;;;;;;;;;;108102;268;43912;-42
2023/06/17 00:20:07;;;;;;;11.60;10.60;;;;;;;;;;108069;268;42187;-43
2023/06/17 00:22:43;;;;;;;11.70;10.70;;;;;;;;;;108107;268;39875;-42
2023/06/17 00:25:16;;;;;;;12.00;11.00;;;;;;;;;;108051;268;39772;-42
2023/06/17 00:27:50;;;;;;;11.90;10.90;;;;;;;;;;108060;276;43991;-43
2023/06/17 00:30:23;;;;;;;11.90;10.90;;;;;;;;;;108103;276;42233;-40
2023/06/17 00:32:58;;;;;;;11.60;10.60;;;;;;;;;;108069;276;38774;-40
2023/06/17 00:35:31;;;;;;;11.80;10.80;;;;;;;;;;108110;272;40873;-43
2023/06/17 00:38:06;;;;;;;11.90;10.90;;;;;;;;;;108183;276;42606;-40
2023/06/17 00:40:42;;;;;;;11.60;10.60;;;;;;;;;;108167;276;42317;-42
2023/06/17 00:43:16;;;;;;;11.90;10.90;;;;;;;;;;108193;269;38880;-41
2023/06/17 00:45:50;;;;;;;12.00;11.00;;;;;;;;;;108122;269;39511;-41
2023/06/17 00:48:27;;;;;;;11.90;10.90;;;;;;;;;;108174;272;44990;-41
2023/06/17 00:51:03;;;;;;;12.00;10.90;;;;;;;;;;108066;277;43190;-45
2023/06/17 00:53:38;;;;;;;12.30;11.30;;;;;;;;;;108209;280;38882;-41
2023/06/17 00:56:11;;;;;;;12.40;11.40;;;;;;;;;;108156;276;39701;-43
2023/06/17 00:58:45;;;;;;;12.20;11.20;;;;;;;;;;108154;272;42801;-40
2023/06/17 01:01:19;;;;;;;11.90;10.90;;;;;;;;;;108117;276;42365;-41
2023/06/17 01:03:52;;;;;;;11.90;10.90;;;;;;;;;;108078;273;39944;-43
2023/06/17 01:06:38;;;;;;;12.50;11.40;;;;;;;;;;108040;273;40697;-42
2023/06/17 01:09:17;;;;;;;12.10;11.10;;;;;;;;;;108047;276;42985;-41
2023/06/17 01:11:55;;;;;;;12.40;11.40;;;;;;;;;;108049;276;42247;-41
2023/06/17 01:14:31;;;;;;;12.30;11.30;;;;;;;;;;108104;268;38742;-41
2023/06/17 01:17:10;;;;;;;12.20;11.20;;;;;;;;;;108027;276;39402;-40
2023/06/17 01:19:48;;;;;;;12.00;11.00;;;;;;;;;;108086;273;42684;-42
2023/06/17 01:22:22;;;;;;;12.30;11.30;;;;;;;;;;108053;274;43295;-43
2023/06/17 01:25:01;;;;;;;11.70;10.70;;;;;;;;;;108093;277;39957;-41
2023/06/17 01:27:36;;;;;;;11.80;10.80;;;;;;;;;;107941;276;175457;-40
2023/06/17 01:30:12;;;;;;;11.80;10.80;;;;;;;;;;108089;276;44045;-40
2023/06/17 01:32:46;;;;;;;11.50;10.50;;;;;;;;;;108086;273;41975;-40
2023/06/17 01:35:20;;;;;;;11.70;10.70;;;;;;;;;;108041;277;38571;-39
2023/06/17 01:38:03;;;;;;;11.70;10.80;;;;;;;;;;108019;277;45379;-39
2023/06/17 01:40:41;;;;;;;12.10;11.10;;;;;;;;;;108038;273;44057;-40
2023/06/17 01:43:18;;;;;;;12.20;11.20;;;;;;;;;;108051;273;42145;-40
2023/06/17 01:45:53;;;;;;;11.80;10.80;;;;;;;;;;108052;277;38784;-40
2023/06/17 01:48:29;;;;;;;11.80;10.80;;;;;;;;;;108069;276;45639;-41
2023/06/17 01:51:02;;;;;;;11.00;10.00;;;;;;;;;;108072;268;43142;-41
2023/06/17 01:53:35;;;;;;;11.70;10.60;;;;;;;;;;108051;277;42249;-40
2023/06/17 01:56:10;;;;;;;12.00;11.00;;;;;;;;;;108064;276;38845;-40
2023/06/17 01:58:46;;;;;;;11.70;10.70;;;;;;;;;;108117;277;46104;-41
2023/06/17 02:01:20;;;;;;;11.20;10.30;;;;;;;;;;108075;276;44026;-40
2023/06/17 02:03:55;;;;;;;11.30;10.30;;;;;;;;;;108076;276;41945;-43
2023/06/17 02:06:30;;;;;;;11.20;10.20;;;;;;;;;;108022;273;38741;-41
2023/06/17 02:09:03;;;;;;;11.50;10.50;;;;;;;;;;108079;276;47067;-41
2023/06/17 02:11:37;;;;;;;11.60;10.60;;;;;;;;;;108105;268;42893;-41
2023/06/17 02:14:10;;;;;;;11.00;10.00;;;;;;;;;;108104;273;42300;-39
2023/06/17 02:16:49;;;;;;;11.20;10.20;;;;;;;;;;108101;276;39929;-40
2023/06/17 02:19:28;;;;;;;10.70;9.80;;;;;;;;;;107943;270;48085;-40
2023/06/17 02:22:03;;;;;;;10.90;9.90;;;;;;;;;;108071;273;42865;-42
2023/06/17 02:24:36;;;;;;;10.50;9.60;;;;;;;;;;108050;277;42207;-42
2023/06/17 02:27:10;;;;;;;10.60;9.70;;;;;;;;;;108041;276;38798;-41
2023/06/17 02:29:44;;;;;;;10.20;9.30;;;;;;;;;;108035;268;46901;-40
2023/06/17 02:32:17;;;;;;;10.20;9.30;;;;;;;;;;108070;268;43944;-39
2023/06/17 02:34:51;;;;;;;10.30;9.40;;;;;;;;;;107999;276;42157;-41
2023/06/17 02:37:25;;;;;;;10.10;9.20;;;;;;;;;;108024;276;39941;-40
2023/06/17 02:39:59;;;;;;;9.80;8.90;;;;;;;;;;108046;273;46989;-40
2023/06/17 02:42:32;;;;;;;10.00;9.10;;;;;;;;;;108079;276;42748;-40
2023/06/17 02:45:11;;;;;;;9.90;9.00;;;;;;;;;;108091;276;42423;-41
2023/06/17 02:47:44;;;;;;;9.60;8.70;;;;;;;;;;108064;269;39940;-40
2023/06/17 02:50:23;;;;;;;9.40;8.60;;;;;;;;;;108096;277;47120;-40
2023/06/17 02:52:57;;;;;;;9.90;9.00;;;;;;;;;;108096;269;42827;-41
2023/06/17 02:55:30;;;;;;;9.00;8.20;;;;;;;;;;108083;268;42123;-42
2023/06/17 02:58:03;;;;;;;9.20;8.40;;;;;;;;;;108050;276;38552;-39
2023/06/17 03:00:37;;;;;;;9.40;8.50;;;;;;;;;;108134;276;46312;-40
2023/06/17 03:03:11;;;;;;;9.20;8.30;;;;;;;;;;108112;269;43380;-44
2023/06/17 03:05:46;;;;;;;9.20;8.40;;;;;;;;;;108091;273;42130;-43
2023/06/17 03:08:20;;;;;;;9.20;8.40;;;;;;;;;;108021;270;39797;-40
2023/06/17 03:10:56;;;;;;;9.20;8.30;;;;;;;;;;108090;276;47900;-42
2023/06/17 03:13:29;;;;;;;8.60;7.80;;;;;;;;;;108105;273;42897;-43
2023/06/17 03:16:05;;;;;;;8.70;7.90;;;;;;;;;;108097;276;42220;-42
2023/06/17 03:18:38;;;;;;;8.10;7.40;;;;;;;;;;108082;273;39891;-41
2023/06/17 03:21:12;;;;;;;8.60;7.80;;;;;;;;;;108037;269;46998;-40
2023/06/17 03:23:48;;;;;;;8.30;7.50;;;;;;;;;;108043;273;42817;-41
2023/06/17 03:26:23;;;;;;;8.20;7.50;;;;;;;;;;108095;277;42309;-40
2023/06/17 03:28:56;;;;;;;8.70;7.90;;;;;;;;;;108048;277;38541;-40
2023/06/17 03:31:31;;;;;;;8.40;7.60;;;;;;;;;;108068;273;46881;-41
2023/06/17 03:34:06;;;;;;;8.10;7.40;;;;;;;;;;108096;277;43897;-41
2023/06/17 03:36:40;;;;;;;7.90;7.10;;;;;;;;;;108009;277;42845;-41
2023/06/17 03:39:15;;;;;;;8.00;7.20;;;;;;;;;;108068;277;38780;-40
2023/06/17 03:41:49;;;;;;;7.80;7.10;;;;;;;;;;108100;276;45822;-41
2023/06/17 03:44:22;;;;;;;7.80;7.00;;;;;;;;;;108095;273;44050;-40
2023/06/17 03:46:59;;;;;;;7.70;6.90;;;;;;;;;;108055;277;42011;-41
2023/06/17 03:49:32;;;;;;;7.50;6.80;;;;;;;;;;108063;269;39499;-41
2023/06/17 03:52:07;;;;;;;7.60;6.90;;;;;;;;;;107969;273;175493;-41
2023/06/17 03:54:41;;;;;;;7.80;7.00;;;;;;;;;;108087;277;44008;-42
2023/06/17 03:57:14;;;;;;;7.50;6.80;;;;;;;;;;108104;277;42115;-41
2023/06/17 03:59:48;;;;;;;7.70;7.00;;;;;;;;;;108047;269;38570;-40
2023/06/17 04:02:23;;;;;;;7.30;6.60;;;;;;;;;;108089;277;45905;-43
2023/06/17 04:04:56;;;;;;;7.40;6.70;;;;;;;;;;108094;269;43109;-41
2023/06/17 04:07:33;;;;;;;7.10;6.40;;;;;;;;;;108100;276;42112;-41
2023/06/17 04:10:08;;;;;;;7.40;6.70;;;;;;;;;;108039;277;38650;-39
2023/06/17 04:12:45;;;;;;;7.40;6.70;;;;;;;;;;108097;277;46755;-43
2023/06/17 04:15:21;;;;;;;7.50;6.80;;;;;;;;;;108112;277;43064;-39
2023/06/17 04:17:54;;;;;;;7.50;6.80;;;;;;;;;;108072;273;43267;-40
2023/06/17 04:20:34;;;;;;;7.30;6.60;;;;;;;;;;108046;277;39804;-41
2023/06/17 04:23:10;;;;;;;7.60;6.90;;;;;;;;;;108094;277;39814;-44
2023/06/17 04:25:45;;;;;;;7.50;6.70;;;;;;;;;;108122;277;42903;-43
2023/06/17 04:28:19;;;;;;;7.40;6.60;;;;;;;;;;108080;276;42240;-40
2023/06/17 04:30:52;;;;;;;7.20;6.50;;;;;;;;;;108061;276;38856;-41
2023/06/17 04:33:26;;;;;;;6.90;6.20;;;;;;;;;;108094;277;40028;-40
2023/06/17 04:36:07;;;;;;;7.30;6.60;;;;;;;;;;108080;273;42691;-39
2023/06/17 04:38:41;;;;;;;7.30;6.60;;;;;;;;;;108047;273;42148;-40
2023/06/17 04:41:15;;;;;;;7.30;6.60;;;;;;;;;;108077;273;38792;-40
2023/06/17 04:43:49;;;;;;;7.70;7.00;;;;;;;;;;108078;268;39934;-40
2023/06/17 04:46:25;;;;;;;7.60;6.90;;;;;;;;;;108091;276;42598;-40
2023/06/17 04:49:00;;;;;;;7.80;7.10;;;;;;;;;;107637;281;541006;-41
2023/06/17 04:51:38;;;;;;;7.40;6.70;;;;;;;;;;108016;276;38576;-41
2023/06/17 04:54:13;;;;;;;7.50;6.80;;;;;;;;;;108054;268;39736;-40
2023/06/17 04:56:48;;;;;;;7.40;6.70;;;;;;;;;;108067;277;42957;-42
2023/06/17 04:59:21;;;;;;;7.70;7.00;;;;;;;;;;108035;268;42011;-42
2023/06/17 05:01:55;;;;;;;7.60;6.90;;;;;;;;;;108022;276;38570;-40
2023/06/17 05:04:28;;;;;;;7.70;7.00;;;;;;;;;;108054;268;41101;-41
2023/06/17 05:07:01;;;;;;;7.50;6.80;;;;;;;;;;108069;273;44144;-41
2023/06/17 05:09:37;;;;;;;7.70;7.00;;;;;;;;;;108027;277;43082;-40
2023/06/17 05:12:12;;;;;;;7.70;7.00;;;;;;;;;;108068;268;38770;-40
2023/06/17 05:14:48;;;;;;;7.70;7.00;;;;;;;;;;108091;273;39975;-41
2023/06/17 05:17:21;;;;;;;7.70;7.00;;;;;;;;;;108083;268;44036;-41
2023/06/17 05:19:55;;;;;;;7.80;7.10;;;;;;;;;;108077;276;42116;-41
2023/06/17 05:22:28;;;;;;;7.60;6.90;;;;;;;;;;108048;268;38737;-42
2023/06/17 05:25:01;;;;;;;8.20;7.40;;;;;;;;;;108098;277;39865;-42
2023/06/17 05:27:34;;;;;;;7.90;7.10;;;;;;;;;;108103;276;42848;-42
2023/06/17 05:30:10;;;;;;;7.90;7.10;;;;;;;;;;108057;273;41860;-41
2023/06/17 05:32:45;;;;;;;7.50;6.70;;;;;;;;;;108033;273;38519;-41
2023/06/17 05:35:19;;;;;;;8.20;7.40;;;;;;;;;;107984;270;39672;-41
2023/06/17 05:37:54;;;;;;;8.20;7.50;;;;;;;;;;108074;276;42975;-41
2023/06/17 05:40:28;;;;;;;7.90;7.10;;;;;;;;;;108108;276;42113;-40
2023/06/17 05:43:01;;;;;;;7.90;7.10;;;;;;;;;;108058;276;38674;-39
2023/06/17 05:45:34;;;;;;;8.00;7.20;;;;;;;;;;108080;273;39444;-40
2023/06/17 05:48:13;;;;;;;7.60;6.80;;;;;;;;;;108059;276;43977;-42
2023/06/17 05:50:47;;;;;;;8.00;7.20;;;;;;;;;;108099;273;41876;-40
2023/06/17 05:53:20;;;;;;;8.00;7.10;;;;;;;;;;108078;273;38497;-42
2023/06/17 05:55:55;;;;;;;8.10;7.30;;;;;;;;;;108043;276;39462;-41
2023/06/17 05:58:28;;;;;;;9.30;7.30;;;;;;;;;;108047;273;42624;-41
2023/06/17 06:01:01;;;;;;;7.90;7.10;;;;;;;;;;108058;276;41903;-40
2023/06/17 06:03:35;;;;;;;8.10;7.30;;;;;;;;;;108004;276;39837;-42
2023/06/17 06:06:08;;;;;;;8.10;7.30;;;;;;;;;;108081;276;39431;-40
2023/06/17 06:08:41;;;;;;;7.80;6.90;;;;;;;;;;108120;276;42812;-42
2023/06/17 06:11:15;;;;;;;8.00;7.30;;;;;;;;;;108045;276;43321;-41
2023/06/17 06:13:53;;;;;;;8.10;7.30;;;;;;;;;;107978;273;38536;-43
2023/06/17 06:16:28;;;;;;;8.50;7.50;;;;;;;;;;108083;269;39675;-41
2023/06/17 06:19:01;;;;;;;8.00;7.20;;;;;;;;;;108040;273;43822;-42
2023/06/17 06:21:36;;;;;;;7.90;7.20;;;;;;;;;;108014;269;41881;-42
2023/06/17 06:24:10;;;;;;;8.00;7.20;;;;;;;;;;108045;269;38741;-40
2023/06/17 06:26:44;;;;;;;8.00;7.20;;;;;;;;;;108086;276;39475;-41
2023/06/17 06:29:17;;;;;;;7.70;7.00;;;;;;;;;;108063;276;42630;-42
2023/06/17 06:31:50;;;;;;;8.20;7.40;;;;;;;;;;108067;269;42586;-42
2023/06/17 06:34:24;;;;;;;8.00;7.10;;;;;;;;;;107981;273;38858;-40
2023/06/17 06:36:58;;;;;;;8.00;7.20;;;;;;;;;;108027;269;40694;-42
2023/06/17 06:39:34;;;;;;;7.70;7.00;;;;;;;;;;108036;268;42685;-42
2023/06/17 06:42:11;;;;;;;7.90;7.10;;;;;;;;;;107996;277;42068;-41
2023/06/17 06:44:52;;;;;;;7.80;7.00;;;;;;;;;;108033;277;39709;-40
2023/06/17 06:47:25;;;;;;;7.80;7.00;;;;;;;;;;108083;277;40603;-40
2023/06/17 06:50:01;;;;;;;7.60;6.90;;;;;;;;;;108080;277;42837;-41
2023/06/17 06:52:34;;;;;;;7.60;6.80;;;;;;;;;;108079;276;41874;-41
2023/06/17 06:55:09;;;;;;;7.40;6.70;;;;;;;;;;108084;269;38734;-41
2023/06/17 06:57:44;;;;;;;7.70;7.00;;;;;;;;;;108087;277;40726;-42
2023/06/17 07:00:20;;;;;;;7.60;6.70;;;;;;;;;;107384;269;890721;-43
2023/06/17 07:02:56;;;;;;;8.00;7.20;;;;;;;;;;108103;273;42080;-40
2023/06/17 07:05:29;;;;;;;7.30;6.60;;;;;;;;;;108031;269;39028;-43
2023/06/17 07:08:03;;;;;;;7.50;6.80;;;;;;;;;;108024;269;39847;-40
2023/06/17 07:10:39;;;;;;;7.60;6.70;;;;;;;;;;108085;273;42867;-40
2023/06/17 07:13:17;;;;;;;7.50;6.80;;;;;;;;;;108092;277;42007;-44
2023/06/17 07:15:53;;;;;;;7.80;7.10;;;;;;;;;;108038;277;39865;-43
2023/06/17 07:18:26;;;;;;;7.30;6.60;;;;;;;;;;108074;268;40695;-42
2023/06/17 07:20:59;;;;;;;7.20;6.50;;;;;;;;;;108054;277;42857;-43
2023/06/17 07:23:32;;;;;;;7.40;6.70;;;;;;;;;;108071;277;42197;-41
2023/06/17 07:26:06;;;;;;;7.40;6.70;;;;;;;;;;108019;273;38787;-43
2023/06/17 07:28:39;;;;;;;7.60;6.80;;;;;;;;;;108104;277;39485;-41
2023/06/17 07:31:14;;;;;;;7.40;6.70;;;;;;;;;;107998;277;42832;-44
2023/06/17 07:33:48;;;;;;;7.00;6.30;;;;;;;;;;108020;268;42322;-42
2023/06/17 07:36:21;;;;;;;7.30;6.60;;;;;;;;;;108066;273;38662;-40
2023/06/17 07:38:54;;;;;;;7.40;6.70;;;;;;;;;;108061;276;38444;-40
2023/06/17 07:41:28;;;;;;;7.20;6.50;;;;;;;;;;108001;269;43080;-45
2023/06/17 07:44:01;;;;;;;6.90;6.20;;;;;;;;;;108030;273;42096;-40
2023/06/17 07:46:34;;;;;;;6.70;6.10;;;;;;;;;;108018;277;38567;-44
2023/06/17 07:49:10;;;;;;;7.30;6.60;;;;;;;;;;108098;277;39448;-40
2023/06/17 07:51:45;;;;;;;6.60;6.00;;;;;;;;;;108030;269;42900;-41
2023/06/17 07:54:20;;;;;;;7.10;6.40;;;;;;;;;;108045;277;42154;-43
2023/06/17 07:56:53;;;;;;;7.30;6.60;;;;;;;;;;108230;277;40029;-40
2023/06/17 07:59:26;;;;;;;6.80;6.20;;;;;;;;;;108067;277;39675;-43
2023/06/17 08:02:01;;;;;;;6.80;6.20;;;;;;;;;;108056;276;42607;-42
2023/06/17 08:04:34;;;;;;;6.90;6.20;;;;;;;;;;107913;269;195940;-41
2023/06/17 08:07:08;;;;;;;6.80;6.20;;;;;;;;;;108053;269;45614;-41
2023/06/17 08:09:41;;;;;;;6.70;6.10;;;;;;;;;;108079;277;39590;-40
2023/06/17 08:12:15;;;;;;;7.00;6.00;;;;;;;;;;108079;269;44047;-42
2023/06/17 08:14:49;;;;;;;6.60;6.00;;;;;;;;;;108054;269;43292;-41
2023/06/17 08:17:22;;;;;;;6.80;6.20;;;;;;;;;;108062;277;44617;-41
2023/06/17 08:19:56;;;;;;;6.80;6.10;;;;;;;;;;108066;269;39705;-42
2023/06/17 08:22:29;;;;;;;6.70;6.00;;;;;;;;;;108069;269;42832;-41
2023/06/17 08:25:03;;;;;;;7.10;6.40;;;;;;;;;;108055;276;42230;-44
2023/06/17 08:27:39;;;;;;;7.10;6.40;;;;;;;;;;108056;276;44545;-40
2023/06/17 08:30:14;;;;;;;7.40;6.70;;;;;;;;;;108082;276;39708;-42
2023/06/17 08:32:47;;;;;;;7.40;6.60;;;;;;;;;;108110;273;42588;-42
2023/06/17 08:35:24;;;;;;;7.50;6.70;;;;;;;;;;108170;276;41911;-41
2023/06/17 08:37:59;;;;;;;7.50;6.80;;;;;;;;;;108044;276;38889;-45
2023/06/17 08:40:34;;;;;;;8.10;7.20;;;;;;;;;;108064;276;39681;-39
2023/06/17 08:43:08;;;;;;;7.60;6.90;;;;;;;;;;108089;272;42936;-41
2023/06/17 08:45:41;;;;;;;7.40;6.70;;;;;;;;;;108051;276;43251;-40
2023/06/17 08:48:14;;;;;;;7.80;7.10;;;;;;;;;;108084;272;46068;-41
2023/06/17 08:50:52;;;;;;;7.80;7.10;;;;;;;;;;108031;272;40847;-41
2023/06/17 08:53:28;;;;;;;7.60;6.60;;;;;;;;;;108063;276;42967;-42
2023/06/17 08:56:01;;;;;;;7.70;7.00;;;;;;;;;;107983;277;42100;-40
2023/06/17 08:58:37;;;;;;;7.70;6.90;;;;;;;;;;108072;268;44806;-41
2023/06/17 09:01:14;;;;;;;7.70;6.80;;;;;;;;;;108070;276;39445;-43
2023/06/17 09:03:50;;;;;;;8.00;7.20;;;;;;;;;;108054;277;42667;-42
2023/06/17 09:06:27;;;;;;;7.80;7.00;;;;;;;;;;108048;276;42139;-43
2023/06/17 09:09:05;;;;;;;7.50;6.80;;;;;;;;;;108011;268;38846;-43
2023/06/17 09:11:38;;;;;;;7.90;7.00;;;;;;;;;;108061;276;39801;-42
2023/06/17 09:14:14;;;;;;;7.80;7.10;;;;;;;;;;108077;276;43153;-41
2023/06/17 09:16:49;;;;;;;7.50;6.80;;;;;;;;;;108041;272;43257;-42
2023/06/17 09:19:26;;;;;;;7.60;6.80;;;;;;;;;;108089;276;38756;-46
2023/06/17 09:22:09;;;;;;;7.90;6.70;;;;;;;;;;108111;276;39748;-43
2023/06/17 09:24:48;;;;;;;8.00;7.20;;;;;;;;;;108145;276;44001;-42
2023/06/17 09:27:28;;;;;;;8.10;7.30;;;;;;;;;;108051;273;42382;-42
2023/06/17 09:30:14;;;;;;;7.60;6.80;;;;;;;;;;108126;276;38740;-42
2023/06/17 09:32:49;;;;;;;7.60;6.80;;;;;;;;;;108135;276;39860;-39
2023/06/17 09:35:24;;;;;;;7.70;7.00;;;;;;;;;;108120;276;42854;-40
2023/06/17 09:37:59;;;;;;;7.60;6.90;;;;;;;;;;108092;276;42161;-42
2023/06/17 09:40:37;;;;;;;8.00;7.20;;;;;;;;;;108103;268;39881;-47
2023/06/17 09:43:15;;;;;;;7.70;7.00;;;;;;;;;;108092;268;40863;-44
2023/06/17 09:46:06;;;;;;;8.10;7.30;;;;;;;;;;108050;270;42818;-42
2023/06/17 09:48:42;;;;;;;7.80;7.00;;;;;;;;;;107950;270;42152;-40
2023/06/17 09:51:20;;;;;;;7.90;7.20;;;;;;;;;;108038;274;39909;-38
2023/06/17 09:53:55;;;;;;;7.70;7.00;;;;;;;;;;108017;278;39716;-40
2023/06/17 09:56:31;;;;;;;7.80;7.10;;;;;;;;;;108033;278;42686;-42
2023/06/17 09:59:08;;;;;;;8.70;7.90;;;;;;;;;;108014;278;42163;-39
2023/06/17 10:01:42;;;;;;;8.10;7.30;;;;;;;;;;108046;277;38789;-40
2023/06/17 10:04:15;;;;;;;7.80;7.10;;;;;;;;;;108167;268;39748;-44
2023/06/17 10:06:53;;;;;;;7.60;6.80;;;;;;;;;;108153;276;44089;-46
2023/06/17 10:09:26;;;;;;;7.20;6.50;;;;;;;;;;108136;272;42017;-44
2023/06/17 10:12:03;;;;;;;8.00;7.20;;;;;;;;;;108124;276;38846;-46
2023/06/17 10:14:37;;;;;;;7.80;7.10;;;;;;;;;;108156;276;39462;-42
2023/06/17 10:17:15;;;;;;;8.50;7.70;;;;;;;;;;108113;276;43245;-43
2023/06/17 10:19:50;;;;;;;8.00;7.20;;;;;;;;;;108092;273;43224;-44
2023/06/17 10:22:24;;;;;;;8.70;7.90;;;;;;;;;;108128;276;38799;-43
2023/06/17 10:24:58;;;;;;;8.20;7.50;;;;;;;;;;108195;273;39822;-44
2023/06/17 10:27:34;;;;;;;8.30;7.60;;;;;;;;;;108134;276;42801;-42
2023/06/17 10:30:29;;;;;;;8.60;7.80;;;;;;;;;;108051;272;43216;-42
2023/06/17 10:33:05;;;;;;;9.10;8.30;;;;;;;;;;108013;276;40221;-43
2023/06/17 10:35:44;;;;;;;8.80;8.00;;;;;;;;;;108004;276;39693;-39
2023/06/17 10:38:34;;;;;;;9.30;8.40;;;;;;;;;;108068;276;44223;-40
2023/06/17 10:41:07;;;;;;;8.90;8.10;;;;;;;;;;108100;276;42126;-43
2023/06/17 10:43:40;;;;;;;9.00;8.20;;;;;;;;;;108072;276;38739;-39
2023/06/17 10:46:13;;;;;;;9.80;9.00;;;;;;;;;;108068;276;39801;-42
2023/06/17 10:48:49;;;;;;;10.00;9.10;;;;;;;;;;108044;273;42645;-43
2023/06/17 10:51:24;;;;;;;9.70;8.90;;;;;;;;;;108017;276;195893;-42
2023/06/17 10:54:15;;;;;;;9.70;8.80;;;;;;;;;;108116;273;38620;-42
2023/06/17 10:56:53;;;;;;;9.20;8.40;;;;;;;;;;108105;273;39775;-42
2023/06/17 10:59:33;;;;;;;10.00;9.10;;;;;;;;;;108059;276;43069;-42
2023/06/17 11:02:09;;;;;;;10.60;9.70;;;;;;;;;;108351;273;42326;-42
2023/06/17 11:04:44;;;;;;;9.40;8.60;;;;;;;;;;108027;270;38799;-43
2023/06/17 11:07:17;;;;;;;9.20;8.40;;;;;;;;;;107971;268;40744;-41
2023/06/17 11:09:54;;;;;;;9.10;8.30;;;;;;;;;;107930;270;42868;-42
2023/06/17 11:12:34;;;;;;;8.90;8.00;;;;;;;;;;108014;270;41858;-42
2023/06/17 11:15:13;;;;;;;8.90;8.00;;;;;;;;;;107986;276;38890;-42
2023/06/17 11:17:49;;;;;;;8.70;7.90;;;;;;;;;;108044;268;39686;-42
2023/06/17 11:20:23;;;;;;;9.00;8.20;;;;;;;;;;108027;276;42822;-44
2023/06/17 11:22:57;;;;;;;9.20;8.30;;;;;;;;;;108138;276;43200;-42
2023/06/17 11:25:33;;;;;;;8.70;7.90;;;;;;;;;;107971;276;38960;-44
2023/06/17 11:28:19;;;;;;;8.10;7.40;;;;;;;;;;108032;274;40038;-41
2023/06/17 11:30:53;;;;;;;8.30;7.50;;;;;;;;;;107964;274;42615;-44
2023/06/17 11:33:28;;;;;;;8.00;7.30;;;;;;;;;;108058;273;43195;-43
2023/06/17 11:36:01;;;;;;;8.20;7.40;;;;;;;;;;108087;276;38778;-42
2023/06/17 11:38:35;;;;;;;9.90;8.90;;;;;;;;;;108100;268;39810;-43
2023/06/17 11:41:09;;;;;;;10.90;9.90;;;;;;;;;;108123;273;42810;-41
2023/06/17 11:43:43;;;;;;;11.70;10.60;;;;;;;;;;108244;276;42237;-45
2023/06/17 11:46:23;;;;;;;12.70;11.50;;;;;;;;;;108173;276;38868;-42
2023/06/17 11:48:57;;;;;;;13.30;12.00;;;;;;;;;;108177;276;39697;-45
2023/06/17 11:51:30;;;;;;;12.40;11.20;;;;;;;;;;108086;276;42946;-44
2023/06/17 11:54:09;;;;;;;13.00;11.70;;;;;;;;;;108146;275;42135;-43
2023/06/17 11:56:44;;;;;;;12.70;11.50;;;;;;;;;;108178;276;38724;-42
2023/06/17 11:59:19;;;;;;;12.20;11.00;;;;;;;;;;108181;275;39821;-42
2023/06/17 12:01:53;;;;;;;12.60;11.40;;;;;;;;;;108127;272;42636;-43
2023/06/17 12:04:29;;;;;;;11.20;10.10;;;;;;;;;;108030;275;42389;-42
2023/06/17 12:07:02;;;;;;;11.50;10.40;;;;;;;;;;108190;275;38801;-41
2023/06/17 12:09:51;;;;;;;11.90;10.70;;;;;;;;;;108227;268;39542;-42
2023/06/17 12:12:34;;;;;;;11.40;10.30;;;;;;;;;;108133;276;50837;-42
2023/06/17 12:15:12;;;;;;;12.10;10.90;;;;;;;;;;108098;273;42059;-43
2023/06/17 12:17:52;;;;;;;10.90;9.90;;;;;;;;;;108051;276;38598;-40
2023/06/17 12:20:26;;;;;;;12.20;10.80;;;;;;;;;;108034;268;39678;-42
2023/06/17 12:23:00;;;;;;;12.20;11.10;;;;;;;;;;107948;276;175444;-46
2023/06/17 12:25:35;;;;;;;12.50;11.20;;;;;;;;;;108083;268;42907;-41
2023/06/17 12:28:10;;;;;;;12.40;11.20;;;;;;;;;;108068;273;38901;-41
2023/06/17 12:30:43;;;;;;;12.60;11.30;;;;;;;;;;108000;276;39690;-43
2023/06/17 12:33:17;;;;;;;12.80;11.50;;;;;;;;;;108093;276;48250;-42
2023/06/17 12:35:51;;;;;;;11.60;10.50;;;;;;;;;;108061;272;42633;-42
2023/06/17 12:38:29;;;;;;;10.80;9.80;;;;;;;;;;108059;276;38727;-43
2023/06/17 12:41:03;;;;;;;10.60;9.60;;;;;;;;;;108067;276;39686;-40
2023/06/17 12:43:38;;;;;;;11.10;10.10;;;;;;;;;;108141;272;50307;-44
2023/06/17 12:46:12;;;;;;;10.20;9.20;;;;;;;;;;108098;276;42194;-40
2023/06/17 12:48:48;;;;;;;10.90;9.80;;;;;;;;;;107708;272;546313;-45
2023/06/17 12:51:21;;;;;;;10.10;9.10;;;;;;;;;;108041;276;39761;-40
2023/06/17 12:53:54;;;;;;;11.10;10.10;;;;;;;;;;108073;276;48700;-41
2023/06/17 12:56:28;;;;;;;11.10;10.10;;;;;;;;;;108084;276;42142;-45
2023/06/17 12:59:04;;;;;;;10.30;9.30;;;;;;;;;;108108;273;38803;-41
2023/06/17 13:01:37;;;;;;;10.80;9.70;;;;;;;;;;108085;276;39853;-41
2023/06/17 13:04:11;;;;;;;10.50;9.50;;;;;;;;;;107987;278;50238;-40
2023/06/17 13:06:47;;;;;;;10.30;9.30;;;;;;;;;;107961;277;41937;-41
2023/06/17 13:09:21;;;;;;;10.40;9.50;;;;;;;;;;108013;268;39832;-41
2023/06/17 13:11:54;;;;;;;10.50;9.50;;;;;;;;;;108003;272;39486;-40
2023/06/17 13:14:28;;;;;;;10.70;9.70;;;;;;;;;;108057;273;50331;-42
2023/06/17 13:17:01;;;;;;;10.10;9.20;;;;;;;;;;108142;276;42650;-41
2023/06/17 13:19:35;;;;;;;10.10;9.10;;;;;;;;;;108095;276;38888;-42
2023/06/17 13:22:09;;;;;;;10.20;9.30;;;;;;;;;;108133;276;39806;-40
2023/06/17 13:24:43;;;;;;;10.30;9.40;;;;;;;;;;108163;276;48787;-40
2023/06/17 13:27:18;;;;;;;9.40;8.50;;;;;;;;;;108222;272;42376;-41
2023/06/17 13:29:54;;;;;;;9.50;8.60;;;;;;;;;;108130;268;38568;-41
2023/06/17 13:32:28;;;;;;;9.20;8.30;;;;;;;;;;108150;268;39819;-42
2023/06/17 13:35:03;;;;;;;8.40;7.60;;;;;;;;;;108163;276;50135;-40
2023/06/17 13:37:37;;;;;;;8.20;7.40;;;;;;;;;;108098;277;42108;-44
2023/06/17 13:40:12;;;;;;;7.80;7.10;;;;;;;;;;108093;277;38974;-41
2023/06/17 13:42:46;;;;;;;7.60;6.90;;;;;;;;;;108054;269;40763;-40
2023/06/17 13:45:19;;;;;;;7.30;6.60;;;;;;;;;;108042;277;50176;-40
2023/06/17 13:47:53;;;;;;;7.20;6.60;;;;;;;;;;108070;269;42131;-41
2023/06/17 13:50:28;;;;;;;7.50;6.80;;;;;;;;;;108109;277;38689;-43
2023/06/17 13:53:02;;;;;;;7.20;6.50;;;;;;;;;;107952;276;175442;-39
2023/06/17 13:55:36;;;;;;;7.10;6.40;;;;;;;;;;108050;277;48791;-42
2023/06/17 13:58:09;;;;;;;7.40;6.70;;;;;;;;;;108015;270;42242;-43
2023/06/17 14:00:42;;;;;;;7.60;6.90;;;;;;;;;;108022;276;38913;-43
2023/06/17 14:03:18;;;;;;;7.30;6.60;;;;;;;;;;108019;269;39679;-40
2023/06/17 14:05:53;;;;;;;7.90;7.20;;;;;;;;;;108022;269;48876;-41
2023/06/17 14:08:26;;;;;;;7.90;7.20;;;;;;;;;;108014;269;42136;-41
2023/06/17 14:10:59;;;;;;;8.00;7.30;;;;;;;;;;107975;269;39832;-45
2023/06/17 14:13:33;;;;;;;7.90;7.10;;;;;;;;;;108049;272;39642;-41
2023/06/17 14:16:09;;;;;;;7.30;6.60;;;;;;;;;;107377;274;889944;-42
2023/06/17 14:18:44;;;;;;;7.90;7.20;;;;;;;;;;108030;278;42121;-42
2023/06/17 14:21:31;;;;;;;7.90;7.20;;;;;;;;;;108024;278;38877;-41
2023/06/17 14:24:10;;;;;;;7.60;6.90;;;;;;;;;;107919;270;39681;-43
2023/06/17 14:26:47;;;;;;;8.00;7.30;;;;;;;;;;107983;274;44011;-41
2023/06/17 14:29:20;;;;;;;7.70;7.00;;;;;;;;;;107991;270;43129;-40
2023/06/17 14:31:57;;;;;;;8.20;7.40;;;;;;;;;;108036;278;38957;-42
2023/06/17 14:34:30;;;;;;;8.20;7.50;;;;;;;;;;108064;270;39850;-40
2023/06/17 14:37:03;;;;;;;8.00;7.30;;;;;;;;;;108040;275;42859;-42
2023/06/17 14:39:37;;;;;;;7.50;6.80;;;;;;;;;;108012;276;41908;-42
2023/06/17 14:42:12;;;;;;;7.70;7.00;;;;;;;;;;108059;268;38602;-43
2023/06/17 14:44:45;;;;;;;7.70;7.00;;;;;;;;;;108069;273;39678;-42
2023/06/17 14:47:20;;;;;;;7.30;6.60;;;;;;;;;;108117;273;43095;-42
2023/06/17 14:49:54;;;;;;;7.20;6.50;;;;;;;;;;108018;276;42164;-42
2023/06/17 14:52:29;;;;;;;7.00;6.30;;;;;;;;;;108064;273;39851;-42
2023/06/17 14:55:06;;;;;;;6.80;6.20;;;;;;;;;;108028;268;39988;-44
2023/06/17 14:57:40;;;;;;;6.70;6.10;;;;;;;;;;108101;272;42819;-46
2023/06/17 15:00:15;;;;;;;7.10;6.40;;;;;;;;;;108145;277;42232;-44
2023/06/17 15:02:53;;;;;;;7.30;6.60;;;;;;;;;;108084;276;39811;-43
2023/06/17 15:05:30;;;;;;;7.20;6.50;;;;;;;;;;108063;268;39653;-43
2023/06/17 15:08:03;;;;;;;7.50;6.80;;;;;;;;;;108026;268;42850;-44
2023/06/17 15:10:37;;;;;;;6.50;5.90;;;;;;;;;;108084;268;42101;-44
2023/06/17 15:13:10;;;;;;;6.70;6.10;;;;;;;;;;108087;276;38617;-43
2023/06/17 15:15:46;;;;;;;7.10;6.40;;;;;;;;;;108172;272;41875;-45
2023/06/17 15:18:20;;;;;;;7.00;6.30;;;;;;;;;;108056;277;42656;-42
2023/06/17 15:20:55;;;;;;;7.00;6.40;;;;;;;;;;108055;268;42193;-45
2023/06/17 15:23:29;;;;;;;7.00;6.40;;;;;;;;;;108091;276;38744;-42